Pagina principale
METAR-TAF:

METAR-TAF

Aeroporti :

Laupheim, Germania

latitudine: 48-13N, longitudine: 009-55E, altezza: 538 m

Osservazione

Il bollettino è stato emesso 25 minuti fa, alle 02:46 UTC
Vento 6 kt da nord
Temperature 6°C
Umidità 87%
Pressione 1023 hPa
Visibilità: 5000 m
Nubi sparse ad un'altezza di 700 ft
Nuvoloso ad un'altezza di 1700 ft
pioggia, foschia

METAR: ETHL 240246Z 36006KT 5000 RA BR SCT007 BKN017 06/04 Q1023 WHT

Ora: 04:11 (03:11 UTC)


TAF: mancante

Osservazioni e previsioni meteorologiche di più di 4000 aeroporti (messaggi METAR e TAF).

Le stazioni disponibili sono rappresentate dai dischi gialli e rossi sulla carta.

Puntare il mouse per vedere il nome della stazione.

Clicca sopra per visualizzare le osservazioni e previsioni meteorologiche.

Per cambiare la mappa : fare clic sui pulsanti verdi con una croce nera per ingrandire, il pulsante verde con un trattino per diminuire, o sulla freccia verde per le mappe adiacenti.


METAR-TAF: